Time;durP1;ratioP1;P1;durP2;ratioP2;P2;SDS_P1;SDS_P2;PMS_P1;PMS_P2;Temp;Humidity;BMP_temperature;BMP_pressure;BME280_temperature;BME280_humidity;BME280_pressure;Samples;Min_cycle;Max_cycle;Signal;HPM_P1;HPM_P2
2023/04/09 00:00:17;;;;;;;15.35;7.75;;;;;;;8.02;78.29;98765.88;5075918;28;20052;-94
2023/04/09 00:02:43;;;;;;;14.38;8.63;;;;;;;7.99;78.42;98776.53;5066771;28;20561;-93
2023/04/09 00:05:09;;;;;;;12.15;8.02;;;;;;;8.08;78.22;98788.75;5075761;28;20048;-92
2023/04/09 00:07:35;;;;;;;13.65;8.48;;;;;;;8.10;78.15;98787.81;5073292;28;20075;-93
2023/04/09 00:10:01;;;;;;;14.95;8.52;;;;;;;8.00;78.40;98778.28;5060421;28;20049;-92
2023/04/09 00:12:29;;;;;;;13.93;8.60;;;;;;;7.98;78.79;98770.38;5063276;28;20041;-93
2023/04/09 00:14:55;;;;;;;14.27;8.77;;;;;;;7.89;78.75;98762.56;5063575;28;20041;-94
2023/04/09 00:17:22;;;;;;;15.77;8.70;;;;;;;8.00;78.84;98784.47;5064741;28;20548;-93
2023/04/09 00:19:48;;;;;;;13.38;8.93;;;;;;;8.08;79.17;98792.28;5077975;28;20435;-93
2023/04/09 00:22:15;;;;;;;14.57;8.38;;;;;;;8.14;78.81;98804.53;5076009;28;20053;-94
2023/04/09 00:24:41;;;;;;;14.45;8.60;;;;;;;8.13;78.76;98818.66;5065744;28;20118;-95
2023/04/09 00:27:06;;;;;;;15.15;8.45;;;;;;;8.03;79.02;98794.13;5066908;28;20049;-94
2023/04/09 00:29:32;;;;;;;13.63;9.15;;;;;;;7.83;79.02;98775.94;5063169;28;20064;-93
2023/04/09 00:31:58;;;;;;;14.02;8.50;;;;;;;8.00;79.54;98805.66;5061751;28;20106;-94
2023/04/09 00:34:26;;;;;;;13.73;8.82;;;;;;;7.86;79.49;98789.09;5068518;28;20040;-94
2023/04/09 00:36:52;;;;;;;13.45;8.93;;;;;;;7.62;79.90;98761.25;5063660;28;20067;-92
2023/04/09 00:39:18;;;;;;;17.67;9.15;;;;;;;7.69;80.14;98773.47;5074793;28;20041;-93
2023/04/09 00:41:44;;;;;;;16.13;9.38;;;;;;;7.82;79.92;98790.91;5074765;28;20048;-93
2023/04/09 00:44:10;;;;;;;15.68;9.18;;;;;;;7.92;79.56;98809.31;5065276;28;20036;-92
2023/04/09 00:46:36;;;;;;;14.68;9.27;;;;;;;7.84;79.56;98790.91;5050691;28;20497;-92
2023/04/09 00:49:02;;;;;;;15.50;9.07;;;;;;;7.75;79.81;98776.03;5065902;28;20049;-96
2023/04/09 00:51:30;;;;;;;15.05;8.70;;;;;;;7.78;79.65;98775.09;5067161;28;20040;-93
2023/04/09 00:53:56;;;;;;;15.00;8.43;;;;;;;7.74;80.36;98782.25;5079389;28;20132;-93
2023/04/09 00:56:25;;;;;;;14.70;8.77;;;;;;;8.00;80.22;98820.66;5070928;28;20037;-92
2023/04/09 00:58:51;;;;;;;17.67;8.85;;;;;;;7.79;79.60;98780.38;5076035;28;20033;-94
2023/04/09 01:01:17;;;;;;;14.70;8.95;;;;;;;7.89;80.31;98801.41;5073875;28;20509;-92
2023/04/09 01:03:43;;;;;;;13.73;8.10;;;;;;;7.80;79.55;98776.81;5066598;28;20036;-94
2023/04/09 01:06:21;;;;;;;15.02;8.45;;;;;;;7.88;79.71;98791.72;5069893;28;20528;-93
2023/04/09 01:09:05;;;;;;;17.38;9.10;;;;;;;7.94;79.52;98804.88;5088465;22;20045;-92
2023/04/09 01:11:36;;;;;;;15.05;9.00;;;;;;;7.72;79.93;98777.84;5050766;28;20041;-93
2023/04/09 01:14:07;;;;;;;13.50;8.82;;;;;;;7.75;79.89;98794.56;5052542;28;20037;-92
2023/04/09 01:16:36;;;;;;;13.63;8.68;;;;;;;7.96;79.74;98813.69;5031873;28;20045;-92
2023/04/09 01:19:18;;;;;;;15.73;8.80;;;;;;;7.76;79.02;98766.31;5054334;28;20068;-93
2023/04/09 01:21:45;;;;;;;13.00;8.15;;;;;;;7.78;78.52;98761.88;5048956;28;20037;-94
2023/04/09 01:24:20;;;;;;;15.73;8.40;;;;;;;8.03;78.85;98808.25;5048811;28;20040;-94
2023/04/09 01:26:56;;;;;;;15.57;8.70;;;;;;;7.86;78.77;98793.53;5047961;28;20140;-92
2023/04/09 01:29:25;;;;;;;14.68;8.60;;;;;;;7.84;79.10;98798.84;5049796;28;20135;-93
2023/04/09 01:31:53;;;;;;;;;;;;;;;7.96;79.70;98829.56;5055027;28;20057;-94
2023/04/09 01:34:19;;;;;;;19.70;8.50;;;;;;;7.84;79.35;98811.22;5050521;28;19992;-93
2023/04/09 01:36:49;;;;;;;13.50;8.57;;;;;;;7.63;80.33;98784.16;5057541;28;20036;-93
2023/04/09 01:39:15;;;;;;;16.50;9.23;;;;;;;7.63;80.21;98789.44;5057656;28;20042;-93
2023/04/09 01:41:42;;;;;;;14.55;8.32;;;;;;;7.61;79.86;98794.78;5055295;28;20036;-92
2023/04/09 01:44:10;;;;;;;13.57;8.15;;;;;;;7.61;79.24;98780.66;5052924;28;20037;-92
2023/04/09 01:46:39;;;;;;;14.07;8.93;;;;;;;7.59;79.33;98777.19;5060901;28;20049;-93
2023/04/09 01:49:05;;;;;;;15.27;9.23;;;;;;;7.82;79.27;98803.28;5051038;28;20048;-93
2023/04/09 01:51:32;;;;;;;14.95;8.73;;;;;;;7.78;79.77;98804.22;5060323;28;20037;-93
2023/04/09 01:53:58;;;;;;;14.30;8.50;;;;;;;7.70;78.75;98774.34;5055004;28;20115;-94
2023/04/09 01:56:24;;;;;;;13.07;8.40;;;;;;;7.90;79.42;98811.13;5065590;28;20064;-93
2023/04/09 01:58:51;;;;;;;18.88;9.15;;;;;;;7.64;79.72;98763.88;5050725;28;20049;-94
2023/04/09 02:01:23;;;;;;;14.68;8.70;;;;;;;7.61;79.84;98764.78;5057401;28;20041;-94
2023/04/09 02:03:56;;;;;;;15.23;8.80;;;;;;;7.81;80.29;98817.44;5045536;28;20041;-94
2023/04/09 02:06:28;;;;;;;13.18;8.48;;;;;;;7.76;79.39;98806.00;5063444;28;20037;-94
2023/04/09 02:08:57;;;;;;;13.32;8.55;;;;;;;7.72;79.23;98802.56;5054877;28;20063;-94
2023/04/09 02:11:27;;;;;;;15.65;9.52;;;;;;;7.52;79.67;98770.22;5059040;28;20066;-93
2023/04/09 02:13:55;;;;;;;16.38;8.48;;;;;;;7.55;79.25;98776.34;5063994;28;20048;-95
2023/04/09 02:16:22;;;;;;;12.48;8.05;;;;;;;7.40;80.61;98771.28;5065010;28;20048;-94
2023/04/09 02:18:54;;;;;;;15.05;8.30;;;;;;;7.54;83.09;98816.03;5054717;28;20045;-93
2023/04/09 02:21:21;;;;;;;13.73;7.90;;;;;;;7.29;84.34;98797.88;5060772;28;20064;-93
2023/04/09 02:23:47;;;;;;;11.90;8.10;;;;;;;7.11;86.22;98796.34;5056449;28;20040;-94
2023/04/09 02:26:13;;;;;;;17.02;8.52;;;;;;;7.12;88.54;98828.94;5050690;28;20029;-94
2023/04/09 02:28:39;;;;;;;15.77;8.80;;;;;;;6.68;89.61;98775.72;5054585;28;20133;-94
2023/04/09 02:31:05;;;;;;;16.27;8.90;;;;;;;6.71;89.31;98775.66;5061841;28;20097;-93
2023/04/09 02:33:31;;;;;;;15.93;9.38;;;;;;;6.70;90.25;98789.78;5059708;28;20041;-93
2023/04/09 02:35:59;;;;;;;13.23;8.45;;;;;;;6.67;89.92;98788.94;5058280;28;20044;-93
2023/04/09 02:38:25;;;;;;;13.55;8.57;;;;;;;6.71;89.46;98791.53;5058804;28;20044;-94
2023/04/09 02:40:51;;;;;;;13.60;8.32;;;;;;;6.55;89.39;98769.69;5062198;28;20451;-93
2023/04/09 02:43:17;;;;;;;13.95;8.95;;;;;;;6.70;90.11;98810.94;5049276;28;20045;-94
2023/04/09 02:45:43;;;;;;;15.88;8.63;;;;;;;6.54;90.15;98783.78;5048197;28;20098;-93
2023/04/09 02:48:09;;;;;;;17.40;9.25;;;;;;;6.52;90.26;98779.41;5064843;28;20045;-94
2023/04/09 02:50:35;;;;;;;16.20;9.10;;;;;;;6.39;91.12;98770.72;5064836;28;20047;-93
2023/04/09 02:53:03;;;;;;;15.25;9.63;;;;;;;6.76;87.12;98759.75;5052298;28;20065;-94
2023/04/09 02:55:29;;;;;;;15.80;9.05;;;;;;;7.35;85.06;98820.69;5061175;28;20045;-94
2023/04/09 02:57:55;;;;;;;15.52;8.82;;;;;;;7.18;84.29;98768.06;5058969;28;20560;-94
2023/04/09 03:00:22;;;;;;;13.80;8.88;;;;;;;7.20;84.31;98768.91;5058304;28;20103;-94
2023/04/09 03:02:48;;;;;;;17.02;9.45;;;;;;;7.16;85.58;98767.19;5056975;28;20021;-93
2023/04/09 03:05:13;;;;;;;16.98;8.57;;;;;;;7.10;86.98;98778.72;5057295;28;20045;-94
2023/04/09 03:07:39;;;;;;;17.83;9.77;;;;;;;7.47;85.41;98804.69;5063460;28;20405;-93
2023/04/09 03:10:08;;;;;;;15.50;10.02;;;;;;;7.55;84.58;98801.94;5065887;28;20048;-94
2023/04/09 03:12:34;;;;;;;18.55;9.13;;;;;;;7.66;83.79;98815.88;5054522;28;20025;-94
2023/04/09 03:15:00;;;;;;;17.75;10.40;;;;;;;7.49;83.71;98775.56;5063549;28;20041;-94
2023/04/09 03:17:27;;;;;;;17.13;10.35;;;;;;;7.73;83.11;98806.06;5053699;28;20097;-93
2023/04/09 03:19:54;;;;;;;18.27;9.88;;;;;;;7.74;83.56;98807.81;5054306;28;20425;-94
2023/04/09 03:22:20;;;;;;;14.73;9.63;;;;;;;7.59;83.42;98791.28;5057866;28;20128;-94
2023/04/09 03:24:46;;;;;;;13.52;9.10;;;;;;;7.54;85.33;98795.75;5048647;28;20072;-93
2023/04/09 03:27:15;;;;;;;16.35;9.60;;;;;;;7.69;87.06;98831.69;5057401;28;20041;-95
2023/04/09 03:29:40;;;;;;;;;;;;;;;7.66;86.91;98828.25;5054598;28;20060;-94
2023/04/09 03:32:06;;;;;;;14.18;8.80;;;;;;;7.43;88.03;98802.97;5063726;28;19936;-94
2023/04/09 03:34:32;;;;;;;15.82;9.38;;;;;;;7.51;88.36;98826.69;5061632;28;20140;-94
2023/04/09 03:36:58;;;;;;;17.17;9.95;;;;;;;7.18;88.14;98771.56;5048864;28;20085;-94
2023/04/09 03:39:24;;;;;;;14.57;9.38;;;;;;;7.27;87.77;98785.56;5050418;28;20037;-94
2023/04/09 03:41:50;;;;;;;17.27;9.27;;;;;;;7.18;87.86;98765.41;5057691;28;20037;-93
2023/04/09 03:44:18;;;;;;;15.70;9.50;;;;;;;7.13;88.29;98769.88;5046136;28;20045;-94
2023/04/09 03:46:44;;;;;;;19.15;9.45;;;;;;;7.12;88.47;98790.16;5060825;28;20051;-93
2023/04/09 03:49:10;;;;;;;15.55;9.00;;;;;;;7.26;88.26;98802.31;5057053;28;20056;-94
2023/04/09 03:51:36;;;;;;;14.15;9.20;;;;;;;7.42;86.61;98801.22;5061858;28;20068;-94
2023/04/09 03:54:02;;;;;;;15.35;8.88;;;;;;;7.47;86.54;98806.47;5059239;28;20060;-93
2023/04/09 03:56:28;;;;;;;13.30;8.27;;;;;;;7.37;86.23;98795.09;5054125;28;20070;-93
2023/04/09 03:58:54;;;;;;;12.88;7.82;;;;;;;7.45;85.85;98797.66;5057825;28;20057;-94
2023/04/09 04:01:21;;;;;;;14.05;9.05;;;;;;;7.48;85.74;98809.09;5053308;28;20048;-93
2023/04/09 04:03:47;;;;;;;24.90;9.00;;;;;;;7.33;86.39;98785.47;5052936;28;20044;-93
2023/04/09 04:06:13;;;;;;;13.93;8.25;;;;;;;7.32;85.88;98784.59;5056078;28;20109;-93
2023/04/09 04:08:39;;;;;;;12.50;7.90;;;;;;;7.40;86.43;98816.25;5055005;28;20394;-94
2023/04/09 04:11:05;;;;;;;16.67;8.65;;;;;;;7.25;86.40;98793.53;5060056;28;20109;-94
2023/04/09 04:13:32;;;;;;;15.57;9.18;;;;;;;7.17;86.79;98784.81;5065161;28;20044;-93
2023/04/09 04:15:58;;;;;;;11.57;8.15;;;;;;;7.14;86.61;98796.31;5066309;28;20090;-94
2023/04/09 04:18:25;;;;;;;14.27;8.77;;;;;;;7.13;86.92;98799.81;5057697;28;20051;-94
2023/04/09 04:20:53;;;;;;;14.70;8.20;;;;;;;7.38;86.67;98849.78;5062352;28;20071;-93
2023/04/09 04:23:19;;;;;;;15.63;7.85;;;;;;;7.34;86.89;98848.94;5046970;28;20045;-93
2023/04/09 04:25:45;;;;;;;15.50;8.18;;;;;;;7.30;86.86;98846.34;5052199;28;20060;-93
2023/04/09 04:28:11;;;;;;;12.60;8.18;;;;;;;7.07;86.15;98810.50;5064359;28;20028;-93
2023/04/09 04:30:37;;;;;;;11.18;7.05;;;;;;;7.17;86.00;98830.63;5047024;28;20049;-94
2023/04/09 04:33:03;;;;;;;12.45;7.97;;;;;;;7.04;86.51;98825.53;5048170;28;20041;-94
2023/04/09 04:35:30;;;;;;;13.35;7.45;;;;;;;6.93;86.51;98815.06;5064998;28;20055;-93
2023/04/09 04:37:56;;;;;;;14.70;8.07;;;;;;;6.92;86.57;98823.91;5054566;28;20120;-93
2023/04/09 04:40:22;;;;;;;12.75;7.63;;;;;;;6.96;85.68;98821.22;5056901;28;20068;-93
2023/04/09 04:42:48;;;;;;;12.57;7.47;;;;;;;6.98;84.94;98807.94;5063441;28;20067;-93
2023/04/09 04:45:14;;;;;;;13.18;6.90;;;;;;;7.06;84.92;98824.59;5063108;28;20044;-93
2023/04/09 04:47:40;;;;;;;13.43;7.68;;;;;;;7.15;83.64;98823.63;5047268;28;20049;-93
2023/04/09 04:50:08;;;;;;;11.40;6.82;;;;;;;7.31;83.87;98856.94;5045859;28;20044;-93
2023/04/09 04:52:35;;;;;;;10.93;6.38;;;;;;;7.22;84.27;98850.84;5061230;28;20437;-94
2023/04/09 04:55:02;;;;;;;13.82;6.72;;;;;;;7.05;84.79;98827.25;5064516;28;20051;-93
2023/04/09 04:57:27;;;;;;;13.68;6.90;;;;;;;7.20;84.24;98859.69;5062072;28;20059;-93
2023/04/09 04:59:53;;;;;;;15.32;7.90;;;;;;;7.03;84.58;98835.22;5057403;28;20057;-94
2023/04/09 05:02:19;;;;;;;13.32;7.78;;;;;;;7.28;85.02;98874.59;5044607;28;20056;-94
2023/04/09 05:04:45;;;;;;;15.13;8.40;;;;;;;7.20;85.64;98870.28;5045199;28;20071;-94
2023/04/09 05:07:11;;;;;;;13.80;8.05;;;;;;;7.13;86.16;98858.00;5054201;28;20033;-94
2023/04/09 05:09:41;;;;;;;14.00;7.40;;;;;;;7.10;86.20;98846.59;5026530;28;20053;-94
2023/04/09 05:12:07;;;;;;;16.38;8.57;;;;;;;7.07;85.87;98843.97;5026714;28;20037;-93
2023/04/09 05:14:34;;;;;;;14.52;8.60;;;;;;;7.31;86.08;98877.22;5034284;28;20045;-94
2023/04/09 05:17:00;;;;;;;16.17;8.50;;;;;;;7.45;86.00;98888.50;5045964;28;20048;-94
2023/04/09 05:19:26;;;;;;;15.40;8.18;;;;;;;7.41;85.86;98876.19;5042055;28;20495;-94
2023/04/09 05:21:52;;;;;;;14.75;7.57;;;;;;;7.44;85.15;98872.63;5030067;28;20046;-94
2023/04/09 05:24:18;;;;;;;16.40;8.80;;;;;;;7.39;85.14;98856.81;5029200;28;20042;-94
2023/04/09 05:26:45;;;;;;;14.77;7.78;;;;;;;7.51;84.67;98875.19;5028347;28;20037;-93
2023/04/09 05:29:11;;;;;;;13.38;7.30;;;;;;;7.56;84.95;98878.63;5029526;28;20095;-94
2023/04/09 05:31:39;;;;;;;17.63;7.63;;;;;;;7.68;84.61;98884.69;5029178;28;20029;-93
2023/04/09 05:34:05;;;;;;;12.30;7.47;;;;;;;7.56;84.74;98862.75;5029197;28;20509;-94
2023/04/09 05:36:31;;;;;;;15.85;7.80;;;;;;;7.63;85.31;98894.44;5029097;28;20049;-94
2023/04/09 05:38:57;;;;;;;14.20;8.30;;;;;;;7.50;85.52;98884.00;5030095;28;20057;-93
2023/04/09 05:41:23;;;;;;;14.25;7.75;;;;;;;7.59;85.18;98888.34;5048885;28;20155;-93
2023/04/09 05:43:51;;;;;;;14.35;8.70;;;;;;;7.75;85.54;98918.97;5046386;28;20057;-93
2023/04/09 05:46:17;;;;;;;15.48;8.93;;;;;;;7.56;85.86;98888.34;5044744;28;20040;-92
2023/04/09 05:48:43;;;;;;;13.30;8.27;;;;;;;7.75;85.70;98908.38;5045486;28;20061;-93
2023/04/09 05:51:09;;;;;;;13.63;7.60;;;;;;;7.65;85.84;98887.34;5044703;28;20103;-93
2023/04/09 05:53:35;;;;;;;13.80;7.85;;;;;;;7.65;86.06;98888.22;5029726;28;20103;-94
2023/04/09 05:56:01;;;;;;;16.02;8.15;;;;;;;7.88;86.33;98930.28;5030941;28;20144;-93
2023/04/09 05:58:28;;;;;;;16.13;9.60;;;;;;;7.85;86.31;98932.09;5038604;28;20045;-94
2023/04/09 06:00:55;;;;;;;14.07;8.60;;;;;;;7.84;86.81;98936.50;5047407;28;20056;-94
2023/04/09 06:03:21;;;;;;;14.68;8.32;;;;;;;7.92;87.16;98957.59;5044221;28;20049;-94
2023/04/09 06:05:47;;;;;;;14.40;7.97;;;;;;;7.82;87.01;98944.47;5045137;28;20045;-93
2023/04/09 06:08:13;;;;;;;13.63;8.07;;;;;;;7.69;87.43;98905.81;5051982;28;20076;-93
2023/04/09 06:10:39;;;;;;;13.88;8.10;;;;;;;7.54;87.73;98900.72;5054256;28;20064;-93
2023/04/09 06:13:05;;;;;;;15.30;8.30;;;;;;;7.59;89.11;98917.44;5048071;28;20067;-93
2023/04/09 06:15:31;;;;;;;13.95;8.65;;;;;;;7.55;88.67;98919.25;5063789;28;20049;-91
2023/04/09 06:17:59;;;;;;;13.43;7.07;;;;;;;7.59;88.95;98917.44;5065427;28;20041;-94
2023/04/09 06:20:25;;;;;;;12.63;7.88;;;;;;;7.71;89.24;98925.19;5065180;28;20052;-93
2023/04/09 06:22:50;;;;;;;12.80;7.43;;;;;;;7.92;89.05;98955.81;5058624;28;20033;-94
2023/04/09 06:25:16;;;;;;;12.38;7.22;;;;;;;7.82;89.12;98940.94;5047264;28;20029;-94
2023/04/09 06:27:42;;;;;;;15.90;8.00;;;;;;;7.76;89.27;98927.78;5064504;28;20045;-94
2023/04/09 06:30:09;;;;;;;15.30;8.38;;;;;;;7.84;89.10;98925.06;5063326;28;20037;-93
2023/04/09 06:32:36;;;;;;;16.40;7.85;;;;;;;7.77;89.00;98930.41;5057541;28;20052;-93
2023/04/09 06:35:04;;;;;;;14.25;7.38;;;;;;;7.92;88.98;98925.81;5047877;28;20045;-93
2023/04/09 06:37:30;;;;;;;15.97;8.20;;;;;;;8.02;88.51;98945.97;5048263;28;20099;-95
2023/04/09 06:39:56;;;;;;;18.02;8.57;;;;;;;8.03;88.93;98968.91;5048205;28;20040;-95
2023/04/09 06:42:22;;;;;;;16.27;8.48;;;;;;;7.97;88.07;98942.50;5048219;28;20045;-95
2023/04/09 06:44:48;;;;;;;16.30;8.63;;;;;;;8.02;88.27;98935.38;5047436;28;20037;-94
2023/04/09 06:47:14;;;;;;;18.40;9.02;;;;;;;7.82;88.18;98928.56;5047531;28;20052;-94
2023/04/09 06:49:40;;;;;;;14.70;7.28;;;;;;;8.24;87.10;98957.16;5048017;28;20045;-92
2023/04/09 06:52:07;;;;;;;15.45;9.18;;;;;;;7.95;86.67;98937.22;5046383;28;20410;-93
2023/04/09 06:54:34;;;;;;;13.55;8.15;;;;;;;7.96;86.97;98931.06;5047800;28;20044;-94
2023/04/09 06:57:00;;;;;;;18.63;9.45;;;;;;;7.94;86.60;98931.97;5046767;28;20041;-93
2023/04/09 06:59:26;;;;;;;17.38;8.60;;;;;;;8.17;87.09;98952.81;5055642;28;20048;-93
2023/04/09 07:02:25;;;;;;;;;;;;;;;;;;;;;
2023/04/09 07:05:09;;;;;;;13.40;7.10;;;;;;;8.51;85.34;98962.97;5028776;28;20037;-93
2023/04/09 07:07:50;;;;;;;;;;;;;;;;;;;;;
2023/04/09 07:10:27;;;;;;;12.27;6.15;;;;;;;8.96;81.41;98931.28;5047573;28;20080;-93
2023/04/09 07:13:21;;;;;;;12.65;6.97;;;;;;;8.89;81.20;98949.06;5055898;28;20490;-94
2023/04/09 07:15:48;;;;;;;12.18;6.72;;;;;;;9.30;79.38;98957.16;5047791;28;20131;-94
2023/04/09 07:18:46;;;;;;;11.75;6.88;;;;;;;9.52;79.48;98954.97;5048878;28;20052;-95
2023/04/09 07:21:27;;;;;;;11.20;6.30;;;;;;;9.60;77.28;98940.63;5058394;28;20041;-94
2023/04/09 07:24:22;;;;;;;11.40;6.35;;;;;;;10.17;75.19;98991.69;5056341;28;20102;-94
2023/04/09 07:26:55;;;;;;;15.00;6.20;;;;;;;9.91;73.27;98947.09;5063190;28;20044;-95
2023/04/09 07:29:39;;;;;;;9.98;5.65;;;;;;;10.55;71.14;98985.53;5065191;28;20052;-92
2023/04/09 07:32:29;;;;;;;8.27;5.30;;;;;;;10.60;69.77;98966.81;5062931;28;20095;-93
2023/04/09 07:47:19;;;;;;;9.63;5.45;;;;;;;10.14;70.19;98958.09;4881896;29;20100;-93
2023/04/09 07:50:37;;;;;;;8.05;5.35;;;;;;;10.80;69.13;98974.31;4887915;29;20137;-92
2023/04/09 07:53:32;;;;;;;10.55;6.20;;;;;;;10.96;68.97;98954.38;4948187;29;20472;-92
2023/04/09 07:56:28;;;;;;;9.82;5.70;;;;;;;11.22;68.53;98972.34;4871730;29;20049;-95
2023/04/09 08:07:33;;;;;;;12.98;8.55;;;;;;;11.82;65.23;98994.69;4805618;29;20039;-94
2023/04/09 08:10:29;;;;;;;12.20;7.55;;;;;;;12.15;61.52;98961.78;4788655;29;20129;-90
2023/04/09 08:20:23;;;;;;;17.35;8.65;;;;;;;12.78;59.64;98971.34;4775712;29;20049;-92
2023/04/09 08:23:20;;;;;;;16.25;7.85;;;;;;;13.04;58.39;98956.25;4811416;29;20107;-95
2023/04/09 08:26:25;;;;;;;15.55;8.05;;;;;;;13.21;57.40;98958.34;4821899;29;20152;-94
2023/04/09 08:29:00;;;;;;;16.00;8.00;;;;;;;13.55;56.93;98955.34;4835169;29;20057;-95
2023/04/09 08:31:32;;;;;;;16.50;8.63;;;;;;;13.33;55.00;98963.28;4858105;29;20052;-92
2023/04/09 08:33:58;;;;;;;15.90;8.55;;;;;;;12.83;57.27;98952.50;4907783;29;20048;-93
2023/04/09 08:36:31;;;;;;;13.70;7.97;;;;;;;13.13;56.72;99001.31;4923310;29;20052;-94
2023/04/09 08:39:02;;;;;;;16.88;8.90;;;;;;;13.22;57.53;98998.31;4936312;28;20441;-91
2023/04/09 08:41:41;;;;;;;19.27;9.18;;;;;;;13.42;56.60;98973.63;4953139;28;20408;-93
2023/04/09 08:44:21;;;;;;;16.80;9.13;;;;;;;12.93;56.95;98973.50;4960496;28;20047;-92
2023/04/09 08:46:55;;;;;;;17.25;9.18;;;;;;;13.38;56.13;98993.38;4949279;28;20051;-92
2023/04/09 08:49:24;;;;;;;15.20;8.65;;;;;;;13.13;57.05;98977.28;4956833;28;20098;-91
2023/04/09 08:52:08;;;;;;;16.33;9.23;;;;;;;13.32;56.01;98967.75;4968543;28;20043;-92
2023/04/09 08:54:35;;;;;;;15.63;9.30;;;;;;;13.61;55.58;98981.88;5039518;28;20053;-95
2023/04/09 08:57:40;;;;;;;17.13;9.32;;;;;;;13.51;55.11;98959.97;5046241;28;20144;-94
2023/04/09 09:07:22;;;;;;;18.35;9.20;;;;;;;15.05;50.62;98962.03;4997995;28;20042;-93
2023/04/09 09:10:03;;;;;;;16.55;9.90;;;;;;;15.06;49.03;98995.91;4970777;28;20046;-93
2023/04/09 09:16:33;;;;;;;14.95;9.43;;;;;;;15.50;49.73;98981.53;4954580;28;20136;-93
2023/04/09 09:19:00;;;;;;;15.05;8.35;;;;;;;15.58;47.36;98974.03;4964263;28;20111;-92
2023/04/09 09:21:35;;;;;;;15.52;9.20;;;;;;;15.72;47.57;98990.41;4983450;28;20113;-93
2023/04/09 09:43:44;;;;;;;21.23;10.10;;;;;;;14.42;49.94;98977.06;4918643;29;20084;-94
2023/04/09 09:46:44;;;;;;;15.52;8.50;;;;;;;13.65;52.36;98996.00;4855901;29;20049;-94
2023/04/09 09:53:02;;;;;;;16.77;9.20;;;;;;;13.03;56.32;98990.06;4886152;29;20048;-93
2023/04/09 10:00:06;;;;;;;;;;;;;;;;;;;;;
2023/04/09 10:02:57;;;;;;;15.77;8.45;;;;;;;11.16;67.45;98992.94;4843661;29;20045;-92
2023/04/09 10:09:00;;;;;;;15.10;9.15;;;;;;;11.17;73.87;99003.53;4851920;29;20518;-94
2023/04/09 10:12:21;;;;;;;;;;;;;;;;;;;;;
2023/04/09 10:15:38;;;;;;;23.77;13.25;;;;;;;12.52;74.12;98990.84;4959018;29;20547;-94
2023/04/09 10:19:08;;;;;;;20.40;10.60;;;;;;;12.84;68.63;98979.16;4895291;29;20543;-93
2023/04/09 10:25:15;;;;;;;14.10;8.70;;;;;;;12.97;65.24;98997.41;4890662;29;20048;-92
2023/04/09 10:44:02;;;;;;;14.15;7.80;;;;;;;13.38;56.87;98979.13;4824045;29;20046;-94
2023/04/09 10:47:02;;;;;;;23.08;11.27;;;;;;;13.41;56.74;98971.91;4834662;29;20062;-93
2023/04/09 10:49:46;;;;;;;35.28;15.43;;;;;;;13.16;56.29;98937.13;4820930;29;20054;-93
2023/04/09 10:55:36;;;;;;;49.80;23.13;;;;;;;14.17;55.92;98962.84;4819964;29;20051;-92
2023/04/09 10:58:17;;;;;;;;;;;;;;;;;;;;;
2023/04/09 11:00:49;;;;;;;13.10;8.00;;;;;;;14.51;51.10;98917.84;4879957;29;20132;-93
2023/04/09 11:03:23;;;;;;;16.58;9.23;;;;;;;14.87;51.99;98952.94;4857601;29;20140;-93
2023/04/09 11:05:59;;;;;;;18.52;9.32;;;;;;;14.82;52.22;98895.19;4891687;29;20048;-93
2023/04/09 11:08:29;;;;;;;14.80;9.77;;;;;;;14.52;53.61;98911.53;4915616;29;20123;-92
2023/04/09 11:11:24;;;;;;;12.13;7.53;;;;;;;13.19;53.76;98923.69;4947146;29;20047;-94
2023/04/09 11:14:27;;;;;;;11.57;7.25;;;;;;;13.33;53.01;98961.47;4910378;29;20057;-93
2023/04/09 11:16:59;;;;;;;12.77;7.10;;;;;;;13.31;53.25;98922.38;4924235;29;20490;-93
2023/04/09 11:19:53;;;;;;;11.00;7.43;;;;;;;13.43;53.00;98938.00;4948801;29;20062;-93
2023/04/09 11:22:22;;;;;;;11.05;6.88;;;;;;;13.26;54.30;98937.69;4952720;29;20047;-94
2023/04/09 11:25:03;;;;;;;9.70;6.28;;;;;;;13.10;51.85;98908.00;4944228;28;20406;-94
2023/04/09 11:27:36;;;;;;;10.63;7.05;;;;;;;13.22;54.59;98947.59;4932468;29;20043;-93
2023/04/09 11:30:06;;;;;;;9.95;6.07;;;;;;;12.87;53.51;98931.00;4936531;29;20068;-90
2023/04/09 11:32:36;;;;;;;11.82;5.95;;;;;;;12.99;54.12;98952.84;4994047;28;20041;-92
2023/04/09 11:35:29;;;;;;;13.13;8.40;;;;;;;12.79;53.58;98922.34;5039227;28;20037;-94
2023/04/09 11:38:14;;;;;;;10.00;5.70;;;;;;;13.03;55.05;98955.34;5038135;28;20053;-94
2023/04/09 11:40:51;;;;;;;9.07;5.82;;;;;;;13.25;55.16;98951.94;5039083;28;20131;-95
2023/04/09 11:43:29;;;;;;;9.73;5.50;;;;;;;13.42;54.93;98924.69;5038213;28;20147;-94
2023/04/09 11:45:59;;;;;;;10.48;7.03;;;;;;;13.47;56.45;98944.97;5038097;28;20094;-93
2023/04/09 11:48:56;;;;;;;12.40;7.25;;;;;;;13.49;57.26;98968.97;5038515;28;20048;-94
2023/04/09 11:58:00;;;;;;;13.15;6.80;;;;;;;13.57;54.14;98945.50;4983130;28;20081;-93
2023/04/09 12:00:50;;;;;;;8.27;5.75;;;;;;;13.11;53.62;98915.91;4968278;28;20536;-94
2023/04/09 12:07:28;;;;;;;12.27;6.28;;;;;;;12.82;55.26;98937.41;4966217;28;20139;-94
2023/04/09 12:10:06;;;;;;;7.85;5.85;;;;;;;13.47;52.43;98968.16;4957848;28;20046;-96
2023/04/09 12:13:03;;;;;;;9.52;5.22;;;;;;;13.81;53.31;98911.63;4955668;28;20079;-93
2023/04/09 12:15:31;;;;;;;10.48;5.88;;;;;;;13.88;50.06;98913.16;4972119;28;20400;-94
2023/04/09 12:21:47;;;;;;;8.80;5.10;;;;;;;14.30;48.87;98915.06;4939799;28;20052;-93
2023/04/09 12:24:14;;;;;;;8.23;4.53;;;;;;;14.54;46.66;98941.78;4958672;29;20047;-93
2023/04/09 12:26:53;;;;;;;8.95;4.90;;;;;;;14.28;47.96;98924.97;4969955;28;20057;-93
2023/04/09 12:33:07;;;;;;;9.10;5.65;;;;;;;15.15;49.20;98916.97;4967179;28;20104;-92
2023/04/09 12:35:36;;;;;;;10.33;5.50;;;;;;;15.30;49.33;98929.69;4985477;28;20051;-92
2023/04/09 12:38:11;;;;;;;;;;;;;;;15.35;49.69;98954.47;5043694;28;20041;-95
2023/04/09 12:41:03;;;;;;;5.80;4.40;;;;;;;15.29;49.62;98901.16;5052403;28;19928;-93
2023/04/09 12:43:42;;;;;;;5.85;4.03;;;;;;;14.84;48.78;98915.59;5054003;28;20045;-92
2023/04/09 12:46:36;;;;;;;6.38;4.35;;;;;;;14.04;51.42;98958.03;5061001;28;20049;-94
2023/04/09 12:56:11;;;;;;;8.60;4.32;;;;;;;13.47;51.00;98909.38;4967471;28;20042;-95
2023/04/09 12:59:05;;;;;;;6.57;3.72;;;;;;;13.32;50.90;98925.00;4972611;28;20110;-95
2023/04/09 13:01:31;;;;;;;6.88;3.53;;;;;;;14.14;48.59;98938.03;4968280;28;20054;-95
2023/04/09 13:04:03;;;;;;;8.95;3.75;;;;;;;14.45;49.70;98936.81;4972420;28;20047;-94
2023/04/09 13:06:32;;;;;;;6.72;3.53;;;;;;;14.49;48.43;98909.88;4964978;28;20051;-95
2023/04/09 13:08:58;;;;;;;7.82;3.80;;;;;;;14.72;47.37;98889.31;4981977;28;20046;-94
2023/04/09 13:11:29;;;;;;;6.40;4.20;;;;;;;15.21;49.54;98914.00;4972418;28;20070;-94
2023/04/09 13:13:56;;;;;;;16.08;7.18;;;;;;;15.51;47.19;98903.75;4975255;28;20504;-93
2023/04/09 13:16:22;;;;;;;8.10;4.38;;;;;;;15.54;46.52;98884.84;4974260;28;20046;-93
2023/04/09 13:18:51;;;;;;;6.32;4.20;;;;;;;15.56;48.75;98917.81;4972687;28;20085;-94
2023/04/09 13:21:17;;;;;;;9.25;5.05;;;;;;;15.71;47.82;98893.94;4970933;28;20042;-93
2023/04/09 13:23:51;;;;;;;8.68;3.92;;;;;;;15.79;47.02;98886.44;5044632;28;20041;-94
2023/04/09 13:26:17;;;;;;;5.72;3.33;;;;;;;14.81;44.86;98899.66;5047922;28;20045;-94
2023/04/09 13:28:53;;;;;;;6.25;3.78;;;;;;;15.06;44.40;98912.00;5057675;28;20812;-93
2023/04/09 13:31:22;;;;;;;9.23;4.35;;;;;;;15.32;43.86;98879.56;5050627;28;20155;-93
2023/04/09 13:33:52;;;;;;;5.38;3.58;;;;;;;15.52;42.84;98901.94;5049772;28;20402;-94
2023/04/09 13:36:49;;;;;;;5.90;3.47;;;;;;;15.43;44.48;98915.75;5060937;28;20037;-93
2023/04/09 13:39:32;;;;;;;5.38;2.88;;;;;;;14.71;45.11;98922.41;5054571;28;20122;-94
2023/04/09 13:42:39;;;;;;;6.55;3.58;;;;;;;14.39;46.40;98871.91;5043892;28;20113;-93
2023/04/09 13:45:13;;;;;;;4.00;2.90;;;;;;;15.32;44.98;98898.34;5051053;28;20067;-93
2023/04/09 13:47:39;;;;;;;4.63;3.05;;;;;;;14.66;46.15;98871.75;5049309;28;20529;-91
2023/04/09 13:50:34;;;;;;;5.90;3.20;;;;;;;14.51;46.90;98888.41;5053473;28;20049;-94
2023/04/09 13:53:17;;;;;;;6.20;2.97;;;;;;;13.78;47.62;98890.38;5057096;28;20070;-93
2023/04/09 13:59:25;;;;;;;6.07;3.42;;;;;;;12.41;57.51;98931.63;4988899;28;20057;-94
2023/04/09 14:01:52;;;;;;;7.20;3.50;;;;;;;11.94;64.54;98964.16;4993141;28;20125;-93
2023/04/09 14:04:27;;;;;;;5.45;3.65;;;;;;;11.04;69.38;98938.25;5007497;28;20048;-93